sensor_id;sensor_type;location;lat;lon;timestamp;temperature;humidity
38090;DHT22;23904;52.322;10.232;2023-05-17T00:01:51;9.30;99.90
38090;DHT22;23904;52.322;10.232;2023-05-17T00:04:17;9.40;99.90
38090;DHT22;23904;52.322;10.232;2023-05-17T00:06:42;9.50;99.90
38090;DHT22;23904;52.322;10.232;2023-05-17T00:09:08;9.30;99.90
38090;DHT22;23904;52.322;10.232;2023-05-17T00:11:34;9.30;99.90
38090;DHT22;23904;52.322;10.232;2023-05-17T00:14:00;9.30;99.90
38090;DHT22;23904;52.322;10.232;2023-05-17T00:16:25;9.20;99.90
38090;DHT22;23904;52.322;10.232;2023-05-17T00:18:51;9.20;99.90
38090;DHT22;23904;52.322;10.232;2023-05-17T00:21:17;9.20;99.90
38090;DHT22;23904;52.322;10.232;2023-05-17T00:23:42;9.20;99.90
38090;DHT22;23904;52.322;10.232;2023-05-17T00:26:08;9.20;99.90
38090;DHT22;23904;52.322;10.232;2023-05-17T00:28:34;9.10;99.90
38090;DHT22;23904;52.322;10.232;2023-05-17T00:30:59;9.00;99.90
38090;DHT22;23904;52.322;10.232;2023-05-17T00:33:25;9.10;99.90
38090;DHT22;23904;52.322;10.232;2023-05-17T00:35:51;9.10;99.90
38090;DHT22;23904;52.322;10.232;2023-05-17T00:38:16;9.10;99.90
38090;DHT22;23904;52.322;10.232;2023-05-17T00:40:42;9.10;99.90
38090;DHT22;23904;52.322;10.232;2023-05-17T00:43:08;9.10;99.90
38090;DHT22;23904;52.322;10.232;2023-05-17T00:45:33;9.10;99.90
38090;DHT22;23904;52.322;10.232;2023-05-17T00:47:59;9.00;99.90
38090;DHT22;23904;52.322;10.232;2023-05-17T00:50:25;9.00;99.90
38090;DHT22;23904;52.322;10.232;2023-05-17T00:52:51;9.00;99.90
38090;DHT22;23904;52.322;10.232;2023-05-17T00:55:17;9.00;99.90
38090;DHT22;23904;52.322;10.232;2023-05-17T00:57:44;9.10;99.90
38090;DHT22;23904;52.322;10.232;2023-05-17T01:00:11;9.00;99.90
38090;DHT22;23904;52.322;10.232;2023-05-17T01:02:37;9.00;99.90
38090;DHT22;23904;52.322;10.232;2023-05-17T01:05:03;9.00;99.90
38090;DHT22;23904;52.322;10.232;2023-05-17T01:07:29;8.90;99.90
38090;DHT22;23904;52.322;10.232;2023-05-17T01:09:55;8.90;99.90
38090;DHT22;23904;52.322;10.232;2023-05-17T01:16:12;8.80;99.90
38090;DHT22;23904;52.322;10.232;2023-05-17T01:18:47;8.90;99.90
38090;DHT22;23904;52.322;10.232;2023-05-17T01:21:49;8.80;99.90
38090;DHT22;23904;52.322;10.232;2023-05-17T01:24:31;8.90;99.90
38090;DHT22;23904;52.322;10.232;2023-05-17T01:27:04;8.90;99.90
38090;DHT22;23904;52.322;10.232;2023-05-17T01:29:31;8.80;99.90
38090;DHT22;23904;52.322;10.232;2023-05-17T01:32:02;8.80;99.90
38090;DHT22;23904;52.322;10.232;2023-05-17T01:34:28;8.80;99.90
38090;DHT22;23904;52.322;10.232;2023-05-17T01:36:54;8.90;99.90
38090;DHT22;23904;52.322;10.232;2023-05-17T01:39:21;8.90;99.90
38090;DHT22;23904;52.322;10.232;2023-05-17T01:42:01;8.80;99.90
38090;DHT22;23904;52.322;10.232;2023-05-17T01:44:42;8.90;99.90
38090;DHT22;23904;52.322;10.232;2023-05-17T01:47:51;8.90;99.90
38090;DHT22;23904;52.322;10.232;2023-05-17T01:50:26;8.90;99.90
38090;DHT22;23904;52.322;10.232;2023-05-17T01:52:58;8.90;99.90
38090;DHT22;23904;52.322;10.232;2023-05-17T01:55:44;8.90;99.90
38090;DHT22;23904;52.322;10.232;2023-05-17T01:58:15;8.90;99.90
38090;DHT22;23904;52.322;10.232;2023-05-17T02:00:45;8.90;99.90
38090;DHT22;23904;52.322;10.232;2023-05-17T02:03:15;9.00;99.90
38090;DHT22;23904;52.322;10.232;2023-05-17T02:05:44;8.90;99.90
38090;DHT22;23904;52.322;10.232;2023-05-17T02:08:10;8.90;99.90
38090;DHT22;23904;52.322;10.232;2023-05-17T02:10:36;8.90;99.90
38090;DHT22;23904;52.322;10.232;2023-05-17T02:13:02;9.00;99.90
38090;DHT22;23904;52.322;10.232;2023-05-17T02:15:28;8.90;99.90
38090;DHT22;23904;52.322;10.232;2023-05-17T02:17:54;8.90;99.90
38090;DHT22;23904;52.322;10.232;2023-05-17T02:20:20;8.90;99.90
38090;DHT22;23904;52.322;10.232;2023-05-17T02:22:45;9.00;99.90
38090;DHT22;23904;52.322;10.232;2023-05-17T02:25:11;8.90;99.90
38090;DHT22;23904;52.322;10.232;2023-05-17T02:27:37;8.90;99.90
38090;DHT22;23904;52.322;10.232;2023-05-17T02:30:03;8.80;99.90
38090;DHT22;23904;52.322;10.232;2023-05-17T02:32:29;8.80;99.90
38090;DHT22;23904;52.322;10.232;2023-05-17T02:34:55;8.80;99.90
38090;DHT22;23904;52.322;10.232;2023-05-17T02:37:21;8.80;99.90
38090;DHT22;23904;52.322;10.232;2023-05-17T02:39:46;8.80;99.90
38090;DHT22;23904;52.322;10.232;2023-05-17T02:42:12;8.80;99.90
38090;DHT22;23904;52.322;10.232;2023-05-17T02:44:37;8.80;99.90
38090;DHT22;23904;52.322;10.232;2023-05-17T02:47:03;8.80;99.90
38090;DHT22;23904;52.322;10.232;2023-05-17T02:49:29;8.80;99.90
38090;DHT22;23904;52.322;10.232;2023-05-17T02:51:55;8.80;99.90
38090;DHT22;23904;52.322;10.232;2023-05-17T02:54:20;8.80;99.90
38090;DHT22;23904;52.322;10.232;2023-05-17T02:56:46;8.90;99.90
38090;DHT22;23904;52.322;10.232;2023-05-17T02:59:11;8.80;99.90
38090;DHT22;23904;52.322;10.232;2023-05-17T03:01:37;8.90;99.90
38090;DHT22;23904;52.322;10.232;2023-05-17T03:04:03;8.90;99.90
38090;DHT22;23904;52.322;10.232;2023-05-17T03:06:28;8.90;99.90
38090;DHT22;23904;52.322;10.232;2023-05-17T03:08:54;9.00;99.90
38090;DHT22;23904;52.322;10.232;2023-05-17T03:11:19;9.00;99.90
38090;DHT22;23904;52.322;10.232;2023-05-17T03:13:45;9.00;99.90
38090;DHT22;23904;52.322;10.232;2023-05-17T03:16:15;8.90;99.90
38090;DHT22;23904;52.322;10.232;2023-05-17T03:18:41;8.90;99.90
38090;DHT22;23904;52.322;10.232;2023-05-17T03:21:07;8.80;99.90
38090;DHT22;23904;52.322;10.232;2023-05-17T03:23:32;8.80;99.90
38090;DHT22;23904;52.322;10.232;2023-05-17T03:25:58;8.80;99.90
38090;DHT22;23904;52.322;10.232;2023-05-17T03:28:23;8.80;99.90
38090;DHT22;23904;52.322;10.232;2023-05-17T03:30:49;8.80;99.90
38090;DHT22;23904;52.322;10.232;2023-05-17T03:33:14;8.70;99.90
38090;DHT22;23904;52.322;10.232;2023-05-17T03:35:40;8.80;99.90
38090;DHT22;23904;52.322;10.232;2023-05-17T03:38:05;8.80;99.90
38090;DHT22;23904;52.322;10.232;2023-05-17T03:40:31;8.70;99.90
38090;DHT22;23904;52.322;10.232;2023-05-17T03:42:57;8.70;99.90
38090;DHT22;23904;52.322;10.232;2023-05-17T03:45:22;8.70;99.90
38090;DHT22;23904;52.322;10.232;2023-05-17T03:47:48;8.70;99.90
38090;DHT22;23904;52.322;10.232;2023-05-17T03:50:13;8.70;99.90
38090;DHT22;23904;52.322;10.232;2023-05-17T03:52:39;8.70;99.90
38090;DHT22;23904;52.322;10.232;2023-05-17T03:55:06;8.70;99.90
38090;DHT22;23904;52.322;10.232;2023-05-17T03:57:32;8.70;99.90
38090;DHT22;23904;52.322;10.232;2023-05-17T03:59:57;8.60;99.90
38090;DHT22;23904;52.322;10.232;2023-05-17T04:02:23;8.60;99.90
38090;DHT22;23904;52.322;10.232;2023-05-17T04:04:50;8.50;99.90
38090;DHT22;23904;52.322;10.232;2023-05-17T04:07:17;8.60;99.90
38090;DHT22;23904;52.322;10.232;2023-05-17T04:09:42;8.60;99.90
38090;DHT22;23904;52.322;10.232;2023-05-17T04:12:08;8.70;99.90
38090;DHT22;23904;52.322;10.232;2023-05-17T04:14:38;8.80;99.90
38090;DHT22;23904;52.322;10.232;2023-05-17T04:17:04;8.80;99.90
38090;DHT22;23904;52.322;10.232;2023-05-17T04:19:30;8.80;99.90
38090;DHT22;23904;52.322;10.232;2023-05-17T04:21:55;8.80;99.90
38090;DHT22;23904;52.322;10.232;2023-05-17T04:24:21;8.80;99.90
38090;DHT22;23904;52.322;10.232;2023-05-17T04:26:46;8.80;99.90
38090;DHT22;23904;52.322;10.232;2023-05-17T04:29:12;8.80;99.90
38090;DHT22;23904;52.322;10.232;2023-05-17T04:31:37;9.00;99.90
38090;DHT22;23904;52.322;10.232;2023-05-17T04:34:03;9.10;99.90
38090;DHT22;23904;52.322;10.232;2023-05-17T04:36:28;9.20;99.90
38090;DHT22;23904;52.322;10.232;2023-05-17T04:38:55;9.20;99.90
38090;DHT22;23904;52.322;10.232;2023-05-17T04:41:20;9.30;99.90
38090;DHT22;23904;52.322;10.232;2023-05-17T04:43:46;9.30;99.90
38090;DHT22;23904;52.322;10.232;2023-05-17T04:46:11;9.30;99.90
38090;DHT22;23904;52.322;10.232;2023-05-17T04:48:37;9.30;99.90
38090;DHT22;23904;52.322;10.232;2023-05-17T04:51:03;9.40;99.90
38090;DHT22;23904;52.322;10.232;2023-05-17T04:53:29;9.40;99.90
38090;DHT22;23904;52.322;10.232;2023-05-17T04:55:58;9.50;99.90
38090;DHT22;23904;52.322;10.232;2023-05-17T04:58:24;9.60;99.90
38090;DHT22;23904;52.322;10.232;2023-05-17T05:00:50;9.60;99.90
38090;DHT22;23904;52.322;10.232;2023-05-17T05:03:16;9.60;99.90
38090;DHT22;23904;52.322;10.232;2023-05-17T05:05:42;9.60;99.90
38090;DHT22;23904;52.322;10.232;2023-05-17T05:08:08;9.70;99.90
38090;DHT22;23904;52.322;10.232;2023-05-17T05:10:34;9.70;99.90
38090;DHT22;23904;52.322;10.232;2023-05-17T05:13:00;9.70;99.90
38090;DHT22;23904;52.322;10.232;2023-05-17T05:15:26;9.70;99.90
38090;DHT22;23904;52.322;10.232;2023-05-17T05:17:51;9.70;99.90
38090;DHT22;23904;52.322;10.232;2023-05-17T05:20:17;9.50;99.90
38090;DHT22;23904;52.322;10.232;2023-05-17T05:22:43;9.50;99.90
38090;DHT22;23904;52.322;10.232;2023-05-17T05:25:08;9.60;99.90
38090;DHT22;23904;52.322;10.232;2023-05-17T05:27:34;9.70;99.90
38090;DHT22;23904;52.322;10.232;2023-05-17T05:30:00;9.70;99.90
38090;DHT22;23904;52.322;10.232;2023-05-17T05:32:26;9.60;99.90
38090;DHT22;23904;52.322;10.232;2023-05-17T05:34:52;9.70;99.90
38090;DHT22;23904;52.322;10.232;2023-05-17T05:37:17;9.70;99.90
38090;DHT22;23904;52.322;10.232;2023-05-17T05:39:44;9.80;99.90
38090;DHT22;23904;52.322;10.232;2023-05-17T05:42:10;9.70;99.90
38090;DHT22;23904;52.322;10.232;2023-05-17T05:44:35;9.80;99.90
38090;DHT22;23904;52.322;10.232;2023-05-17T05:47:01;9.80;99.90
38090;DHT22;23904;52.322;10.232;2023-05-17T05:49:27;9.90;99.90
38090;DHT22;23904;52.322;10.232;2023-05-17T05:51:52;9.90;99.90
38090;DHT22;23904;52.322;10.232;2023-05-17T05:54:18;10.00;99.90
38090;DHT22;23904;52.322;10.232;2023-05-17T05:56:44;10.10;99.90
38090;DHT22;23904;52.322;10.232;2023-05-17T05:59:09;10.00;99.90
38090;DHT22;23904;52.322;10.232;2023-05-17T06:01:36;9.90;99.90
38090;DHT22;23904;52.322;10.232;2023-05-17T06:04:02;10.00;99.90
38090;DHT22;23904;52.322;10.232;2023-05-17T06:06:28;10.00;99.90
38090;DHT22;23904;52.322;10.232;2023-05-17T06:08:53;10.00;99.90
38090;DHT22;23904;52.322;10.232;2023-05-17T06:11:19;10.00;99.90
38090;DHT22;23904;52.322;10.232;2023-05-17T06:13:45;10.00;99.90
38090;DHT22;23904;52.322;10.232;2023-05-17T06:16:11;10.10;99.90
38090;DHT22;23904;52.322;10.232;2023-05-17T06:18:37;10.20;99.90
38090;DHT22;23904;52.322;10.232;2023-05-17T06:21:03;10.30;99.90
38090;DHT22;23904;52.322;10.232;2023-05-17T06:23:28;10.40;99.90
38090;DHT22;23904;52.322;10.232;2023-05-17T06:25:54;10.30;99.90
38090;DHT22;23904;52.322;10.232;2023-05-17T06:28:20;10.20;99.90
38090;DHT22;23904;52.322;10.232;2023-05-17T06:30:45;10.40;99.90
38090;DHT22;23904;52.322;10.232;2023-05-17T06:33:11;10.50;99.90
38090;DHT22;23904;52.322;10.232;2023-05-17T06:35:37;10.60;99.90
38090;DHT22;23904;52.322;10.232;2023-05-17T06:38:03;10.70;99.90
38090;DHT22;23904;52.322;10.232;2023-05-17T06:40:28;10.70;99.90
38090;DHT22;23904;52.322;10.232;2023-05-17T06:42:55;10.70;99.90
38090;DHT22;23904;52.322;10.232;2023-05-17T06:45:20;10.50;99.90
38090;DHT22;23904;52.322;10.232;2023-05-17T06:47:46;10.50;99.90
38090;DHT22;23904;52.322;10.232;2023-05-17T06:50:12;10.60;99.90
38090;DHT22;23904;52.322;10.232;2023-05-17T06:52:38;10.80;99.90
38090;DHT22;23904;52.322;10.232;2023-05-17T06:55:04;10.80;99.90
38090;DHT22;23904;52.322;10.232;2023-05-17T06:57:30;10.80;99.90
38090;DHT22;23904;52.322;10.232;2023-05-17T06:59:56;10.80;99.90
38090;DHT22;23904;52.322;10.232;2023-05-17T07:02:21;10.90;99.90
38090;DHT22;23904;52.322;10.232;2023-05-17T07:04:47;11.00;99.90
38090;DHT22;23904;52.322;10.232;2023-05-17T07:07:13;11.00;99.90
38090;DHT22;23904;52.322;10.232;2023-05-17T07:09:38;11.00;99.90
38090;DHT22;23904;52.322;10.232;2023-05-17T07:12:05;11.10;99.90
38090;DHT22;23904;52.322;10.232;2023-05-17T07:14:31;11.30;99.50
38090;DHT22;23904;52.322;10.232;2023-05-17T07:16:56;11.50;98.80
38090;DHT22;23904;52.322;10.232;2023-05-17T07:19:23;11.50;99.10
38090;DHT22;23904;52.322;10.232;2023-05-17T07:21:51;11.60;99.20
38090;DHT22;23904;52.322;10.232;2023-05-17T07:24:17;11.50;99.30
38090;DHT22;23904;52.322;10.232;2023-05-17T07:26:42;11.60;99.40
38090;DHT22;23904;52.322;10.232;2023-05-17T07:29:08;11.60;98.90
38090;DHT22;23904;52.322;10.232;2023-05-17T07:31:33;11.40;99.00
38090;DHT22;23904;52.322;10.232;2023-05-17T07:33:59;11.40;98.30
38090;DHT22;23904;52.322;10.232;2023-05-17T07:36:25;11.40;98.10
38090;DHT22;23904;52.322;10.232;2023-05-17T07:38:55;11.60;98.60
38090;DHT22;23904;52.322;10.232;2023-05-17T07:41:21;11.60;97.90
38090;DHT22;23904;52.322;10.232;2023-05-17T07:43:47;11.60;97.50
38090;DHT22;23904;52.322;10.232;2023-05-17T07:46:14;11.80;97.70
38090;DHT22;23904;52.322;10.232;2023-05-17T07:48:39;11.80;97.20
38090;DHT22;23904;52.322;10.232;2023-05-17T07:51:05;11.80;97.30
38090;DHT22;23904;52.322;10.232;2023-05-17T07:53:31;11.90;97.20
38090;DHT22;23904;52.322;10.232;2023-05-17T07:55:56;12.00;97.40
38090;DHT22;23904;52.322;10.232;2023-05-17T07:58:22;12.20;96.30
38090;DHT22;23904;52.322;10.232;2023-05-17T08:00:47;12.30;95.10
38090;DHT22;23904;52.322;10.232;2023-05-17T08:03:13;12.40;94.40
38090;DHT22;23904;52.322;10.232;2023-05-17T08:05:39;12.60;93.90
38090;DHT22;23904;52.322;10.232;2023-05-17T08:08:04;12.60;93.60
38090;DHT22;23904;52.322;10.232;2023-05-17T08:10:30;12.60;94.20
38090;DHT22;23904;52.322;10.232;2023-05-17T08:12:55;12.50;94.40
38090;DHT22;23904;52.322;10.232;2023-05-17T08:15:21;12.40;94.70
38090;DHT22;23904;52.322;10.232;2023-05-17T08:17:47;12.30;95.70
38090;DHT22;23904;52.322;10.232;2023-05-17T08:20:12;12.40;96.50
38090;DHT22;23904;52.322;10.232;2023-05-17T08:22:38;12.40;96.40
38090;DHT22;23904;52.322;10.232;2023-05-17T08:25:05;12.30;96.80
38090;DHT22;23904;52.322;10.232;2023-05-17T08:27:31;12.30;96.40
38090;DHT22;23904;52.322;10.232;2023-05-17T08:29:57;12.40;96.40
38090;DHT22;23904;52.322;10.232;2023-05-17T08:32:23;12.70;95.80
38090;DHT22;23904;52.322;10.232;2023-05-17T08:34:50;13.00;95.00
38090;DHT22;23904;52.322;10.232;2023-05-17T08:37:17;13.10;94.80
38090;DHT22;23904;52.322;10.232;2023-05-17T08:39:43;13.00;94.30
38090;DHT22;23904;52.322;10.232;2023-05-17T08:42:09;12.90;94.80
38090;DHT22;23904;52.322;10.232;2023-05-17T08:44:35;12.90;94.90
38090;DHT22;23904;52.322;10.232;2023-05-17T08:47:02;12.90;95.00
38090;DHT22;23904;52.322;10.232;2023-05-17T08:49:29;13.10;94.70
38090;DHT22;23904;52.322;10.232;2023-05-17T08:51:59;13.10;94.80
38090;DHT22;23904;52.322;10.232;2023-05-17T08:54:26;13.20;94.80
38090;DHT22;23904;52.322;10.232;2023-05-17T08:56:58;13.00;94.60
38090;DHT22;23904;52.322;10.232;2023-05-17T08:59:25;12.70;94.50
38090;DHT22;23904;52.322;10.232;2023-05-17T09:01:58;12.40;95.10
38090;DHT22;23904;52.322;10.232;2023-05-17T09:04:24;12.20;96.00
38090;DHT22;23904;52.322;10.232;2023-05-17T09:06:51;12.10;95.80
38090;DHT22;23904;52.322;10.232;2023-05-17T09:09:17;12.00;95.80
38090;DHT22;23904;52.322;10.232;2023-05-17T09:11:43;12.20;96.00
38090;DHT22;23904;52.322;10.232;2023-05-17T09:14:08;12.40;95.50
38090;DHT22;23904;52.322;10.232;2023-05-17T09:16:35;12.60;94.50
38090;DHT22;23904;52.322;10.232;2023-05-17T09:19:03;12.90;94.20
38090;DHT22;23904;52.322;10.232;2023-05-17T09:21:30;12.90;94.40
38090;DHT22;23904;52.322;10.232;2023-05-17T09:23:57;12.70;95.20
38090;DHT22;23904;52.322;10.232;2023-05-17T09:26:24;12.60;95.30
38090;DHT22;23904;52.322;10.232;2023-05-17T09:28:51;12.50;95.20
38090;DHT22;23904;52.322;10.232;2023-05-17T09:31:18;12.40;95.60
38090;DHT22;23904;52.322;10.232;2023-05-17T09:33:48;12.50;95.70
38090;DHT22;23904;52.322;10.232;2023-05-17T09:36:19;13.00;95.30
38090;DHT22;23904;52.322;10.232;2023-05-17T09:38:57;14.40;93.40
38090;DHT22;23904;52.322;10.232;2023-05-17T09:41:32;16.00;91.10
38090;DHT22;23904;52.322;10.232;2023-05-17T09:44:08;17.60;82.80
38090;DHT22;23904;52.322;10.232;2023-05-17T09:46:36;18.50;75.00
38090;DHT22;23904;52.322;10.232;2023-05-17T09:49:05;18.20;71.10
38090;DHT22;23904;52.322;10.232;2023-05-17T09:51:37;17.30;72.10
38090;DHT22;23904;52.322;10.232;2023-05-17T09:54:06;16.60;73.30
38090;DHT22;23904;52.322;10.232;2023-05-17T09:56:33;16.30;74.50
38090;DHT22;23904;52.322;10.232;2023-05-17T09:59:19;15.70;75.30
38090;DHT22;23904;52.322;10.232;2023-05-17T10:01:47;14.50;77.10
38090;DHT22;23904;52.322;10.232;2023-05-17T10:04:14;14.20;80.20
38090;DHT22;23904;52.322;10.232;2023-05-17T10:06:45;13.80;83.50
38090;DHT22;23904;52.322;10.232;2023-05-17T10:09:12;13.70;84.20
38090;DHT22;23904;52.322;10.232;2023-05-17T10:11:39;13.60;85.10
38090;DHT22;23904;52.322;10.232;2023-05-17T10:14:16;13.80;83.80
38090;DHT22;23904;52.322;10.232;2023-05-17T10:16:47;13.90;83.30
38090;DHT22;23904;52.322;10.232;2023-05-17T10:19:13;14.40;82.70
38090;DHT22;23904;52.322;10.232;2023-05-17T10:21:40;14.70;81.00
38090;DHT22;23904;52.322;10.232;2023-05-17T10:24:07;15.80;77.40
38090;DHT22;23904;52.322;10.232;2023-05-17T10:26:34;17.50;72.90
38090;DHT22;23904;52.322;10.232;2023-05-17T10:29:01;18.60;65.80
38090;DHT22;23904;52.322;10.232;2023-05-17T10:31:33;19.40;64.00
38090;DHT22;23904;52.322;10.232;2023-05-17T10:34:03;20.90;56.80
38090;DHT22;23904;52.322;10.232;2023-05-17T10:36:30;20.30;55.90
38090;DHT22;23904;52.322;10.232;2023-05-17T10:38:58;18.70;59.30
38090;DHT22;23904;52.322;10.232;2023-05-17T10:41:27;18.50;60.30
38090;DHT22;23904;52.322;10.232;2023-05-17T10:43:57;17.90;62.20
38090;DHT22;23904;52.322;10.232;2023-05-17T10:46:23;17.50;64.30
38090;DHT22;23904;52.322;10.232;2023-05-17T10:48:53;16.90;65.00
38090;DHT22;23904;52.322;10.232;2023-05-17T10:51:23;16.30;66.90
38090;DHT22;23904;52.322;10.232;2023-05-17T10:54:17;16.30;66.80
38090;DHT22;23904;52.322;10.232;2023-05-17T10:56:52;16.80;65.30
38090;DHT22;23904;52.322;10.232;2023-05-17T10:59:25;18.30;64.00
38090;DHT22;23904;52.322;10.232;2023-05-17T11:04:41;19.60;58.70
38090;DHT22;23904;52.322;10.232;2023-05-17T11:09:43;19.50;57.70
38090;DHT22;23904;52.322;10.232;2023-05-17T11:12:11;20.00;57.00
38090;DHT22;23904;52.322;10.232;2023-05-17T11:17:13;21.20;53.00
38090;DHT22;23904;52.322;10.232;2023-05-17T11:22:24;21.50;53.10
38090;DHT22;23904;52.322;10.232;2023-05-17T11:24:53;21.20;51.70
38090;DHT22;23904;52.322;10.232;2023-05-17T11:27:21;20.50;54.30
38090;DHT22;23904;52.322;10.232;2023-05-17T11:29:52;20.30;54.80
38090;DHT22;23904;52.322;10.232;2023-05-17T11:32:29;21.00;53.00
38090;DHT22;23904;52.322;10.232;2023-05-17T11:34:58;21.90;51.30
38090;DHT22;23904;52.322;10.232;2023-05-17T11:37:26;22.60;49.00
38090;DHT22;23904;52.322;10.232;2023-05-17T11:40:06;22.50;47.60
38090;DHT22;23904;52.322;10.232;2023-05-17T11:42:33;22.30;49.30
38090;DHT22;23904;52.322;10.232;2023-05-17T11:45:00;21.00;52.10
38090;DHT22;23904;52.322;10.232;2023-05-17T11:47:27;19.20;54.30
38090;DHT22;23904;52.322;10.232;2023-05-17T11:49:54;19.30;55.50
38090;DHT22;23904;52.322;10.232;2023-05-17T11:52:20;19.30;56.80
38090;DHT22;23904;52.322;10.232;2023-05-17T11:54:47;20.30;54.20
38090;DHT22;23904;52.322;10.232;2023-05-17T11:57:14;20.30;54.40
38090;DHT22;23904;52.322;10.232;2023-05-17T11:59:42;20.30;54.60
38090;DHT22;23904;52.322;10.232;2023-05-17T12:02:08;20.60;53.10
38090;DHT22;23904;52.322;10.232;2023-05-17T12:04:35;20.40;51.50
38090;DHT22;23904;52.322;10.232;2023-05-17T12:07:02;20.60;51.30
38090;DHT22;23904;52.322;10.232;2023-05-17T12:09:28;20.30;52.80
38090;DHT22;23904;52.322;10.232;2023-05-17T12:11:54;19.10;54.30
38090;DHT22;23904;52.322;10.232;2023-05-17T12:14:21;18.20;56.60
38090;DHT22;23904;52.322;10.232;2023-05-17T12:16:50;17.30;59.30
38090;DHT22;23904;52.322;10.232;2023-05-17T12:19:22;16.80;60.90
38090;DHT22;23904;52.322;10.232;2023-05-17T12:21:49;16.80;60.40
38090;DHT22;23904;52.322;10.232;2023-05-17T12:24:15;17.30;59.90
38090;DHT22;23904;52.322;10.232;2023-05-17T12:26:42;17.40;60.40
38090;DHT22;23904;52.322;10.232;2023-05-17T12:29:12;17.60;60.30
38090;DHT22;23904;52.322;10.232;2023-05-17T12:31:41;17.70;58.70
38090;DHT22;23904;52.322;10.232;2023-05-17T12:34:10;18.10;58.00
38090;DHT22;23904;52.322;10.232;2023-05-17T12:36:39;18.90;55.30
38090;DHT22;23904;52.322;10.232;2023-05-17T12:39:06;19.50;55.40
38090;DHT22;23904;52.322;10.232;2023-05-17T12:41:34;20.30;52.30
38090;DHT22;23904;52.322;10.232;2023-05-17T12:44:01;20.30;51.30
38090;DHT22;23904;52.322;10.232;2023-05-17T12:46:27;20.40;51.90
38090;DHT22;23904;52.322;10.232;2023-05-17T12:48:53;20.10;52.70
38090;DHT22;23904;52.322;10.232;2023-05-17T12:51:20;19.40;54.60
38090;DHT22;23904;52.322;10.232;2023-05-17T12:53:54;18.80;56.80
38090;DHT22;23904;52.322;10.232;2023-05-17T12:56:23;18.60;57.40
38090;DHT22;23904;52.322;10.232;2023-05-17T13:01:47;17.60;58.70
38090;DHT22;23904;52.322;10.232;2023-05-17T13:04:16;17.50;58.70
38090;DHT22;23904;52.322;10.232;2023-05-17T13:06:51;17.30;59.10
38090;DHT22;23904;52.322;10.232;2023-05-17T13:09:19;17.50;59.50
38090;DHT22;23904;52.322;10.232;2023-05-17T13:17:05;18.00;57.70
38090;DHT22;23904;52.322;10.232;2023-05-17T13:19:35;18.40;57.80
38090;DHT22;23904;52.322;10.232;2023-05-17T13:22:02;18.20;55.80
38090;DHT22;23904;52.322;10.232;2023-05-17T13:24:32;17.70;56.20
38090;DHT22;23904;52.322;10.232;2023-05-17T13:26:58;17.50;56.40
38090;DHT22;23904;52.322;10.232;2023-05-17T13:29:24;17.20;59.40
38090;DHT22;23904;52.322;10.232;2023-05-17T13:31:50;16.80;60.40
38090;DHT22;23904;52.322;10.232;2023-05-17T13:34:17;16.90;59.80
38090;DHT22;23904;52.322;10.232;2023-05-17T13:36:45;17.10;60.10
38090;DHT22;23904;52.322;10.232;2023-05-17T13:39:11;17.00;60.80
38090;DHT22;23904;52.322;10.232;2023-05-17T13:41:37;16.60;60.60
38090;DHT22;23904;52.322;10.232;2023-05-17T13:44:03;17.00;59.60
38090;DHT22;23904;52.322;10.232;2023-05-17T13:46:29;17.30;59.40
38090;DHT22;23904;52.322;10.232;2023-05-17T13:48:55;17.60;59.00
38090;DHT22;23904;52.322;10.232;2023-05-17T13:51:21;17.70;59.20
38090;DHT22;23904;52.322;10.232;2023-05-17T13:53:47;17.90;60.00
38090;DHT22;23904;52.322;10.232;2023-05-17T13:56:12;17.90;58.90
38090;DHT22;23904;52.322;10.232;2023-05-17T13:58:38;17.50;59.30
38090;DHT22;23904;52.322;10.232;2023-05-17T14:01:03;17.10;59.80
38090;DHT22;23904;52.322;10.232;2023-05-17T14:03:29;17.10;61.00
38090;DHT22;23904;52.322;10.232;2023-05-17T14:05:54;17.10;61.00
38090;DHT22;23904;52.322;10.232;2023-05-17T14:08:20;16.90;61.20
38090;DHT22;23904;52.322;10.232;2023-05-17T14:10:47;17.00;60.60
38090;DHT22;23904;52.322;10.232;2023-05-17T14:13:13;16.90;60.20
38090;DHT22;23904;52.322;10.232;2023-05-17T14:15:39;16.80;60.20
38090;DHT22;23904;52.322;10.232;2023-05-17T14:18:05;16.80;61.40
38090;DHT22;23904;52.322;10.232;2023-05-17T14:20:31;16.90;61.30
38090;DHT22;23904;52.322;10.232;2023-05-17T14:22:57;17.20;60.80
38090;DHT22;23904;52.322;10.232;2023-05-17T14:25:23;17.40;60.10
38090;DHT22;23904;52.322;10.232;2023-05-17T14:27:49;17.30;58.30
38090;DHT22;23904;52.322;10.232;2023-05-17T14:30:15;17.30;60.10
38090;DHT22;23904;52.322;10.232;2023-05-17T14:32:40;17.20;59.70
38090;DHT22;23904;52.322;10.232;2023-05-17T14:35:07;17.00;60.70
38090;DHT22;23904;52.322;10.232;2023-05-17T14:37:33;17.10;60.80
38090;DHT22;23904;52.322;10.232;2023-05-17T14:39:59;16.90;61.90
38090;DHT22;23904;52.322;10.232;2023-05-17T14:42:25;16.90;62.10
38090;DHT22;23904;52.322;10.232;2023-05-17T14:44:51;17.00;62.30
38090;DHT22;23904;52.322;10.232;2023-05-17T14:47:17;17.00;61.70
38090;DHT22;23904;52.322;10.232;2023-05-17T14:49:45;16.90;60.10
38090;DHT22;23904;52.322;10.232;2023-05-17T14:52:11;16.80;60.80
38090;DHT22;23904;52.322;10.232;2023-05-17T14:54:37;16.60;61.40
38090;DHT22;23904;52.322;10.232;2023-05-17T14:57:04;16.60;62.80
38090;DHT22;23904;52.322;10.232;2023-05-17T14:59:30;16.60;63.00
38090;DHT22;23904;52.322;10.232;2023-05-17T15:01:56;16.60;62.60
38090;DHT22;23904;52.322;10.232;2023-05-17T15:04:22;16.50;63.30
38090;DHT22;23904;52.322;10.232;2023-05-17T15:06:48;16.30;63.30
38090;DHT22;23904;52.322;10.232;2023-05-17T15:09:15;16.20;63.20
38090;DHT22;23904;52.322;10.232;2023-05-17T15:11:42;16.30;63.60
38090;DHT22;23904;52.322;10.232;2023-05-17T15:14:09;16.40;62.50
38090;DHT22;23904;52.322;10.232;2023-05-17T15:16:38;16.40;62.40
38090;DHT22;23904;52.322;10.232;2023-05-17T15:19:03;16.00;63.10
38090;DHT22;23904;52.322;10.232;2023-05-17T15:21:29;15.80;64.30
38090;DHT22;23904;52.322;10.232;2023-05-17T15:23:55;15.70;65.20
38090;DHT22;23904;52.322;10.232;2023-05-17T15:26:21;15.80;64.50
38090;DHT22;23904;52.322;10.232;2023-05-17T15:28:47;15.60;64.70
38090;DHT22;23904;52.322;10.232;2023-05-17T15:31:15;15.60;66.40
38090;DHT22;23904;52.322;10.232;2023-05-17T15:33:41;15.40;66.30
38090;DHT22;23904;52.322;10.232;2023-05-17T15:36:10;15.30;68.40
38090;DHT22;23904;52.322;10.232;2023-05-17T15:38:36;15.40;67.60
38090;DHT22;23904;52.322;10.232;2023-05-17T15:41:12;15.50;66.90
38090;DHT22;23904;52.322;10.232;2023-05-17T15:43:39;15.60;67.50
38090;DHT22;23904;52.322;10.232;2023-05-17T15:46:05;15.50;66.30